Terminal Aerodrome Forecast
Issued by NWS

Current Version | Previous Version | Graphics & Text | Print | Product List | Glossary Off
Versions: 1 2 3 4 5 6 7 8 9 10 11 12 13 14 15 16 17 18 19 20 21

000
FTUS41 KILN 310806 AAA
TAFLUK
TAF AMD
KLUK 310806Z 3108/0106 00000KT P6SM FEW110
     FM311000 00000KT 6SM BR SKC
     FM311300 25006KT P6SM SCT045
     FM010200 29004KT P6SM FEW025=

USA.gov is the U.S. government's official web portal to all federal, state and local government web resources and services.